Tiempo atmosférico en la estación meteorológica de El Maíllo, Salamanca (1027 m.)

Fecha
DESCASC
Temp. máxima en grados centígrados (hora)
DESCASC
Temp. mínima en grados centígrados (hora)
DESCASC
Temp. media en grados centígrados
DESCASC
Racha de viento máxima en m/sg (hora)
DESCASC
Velocidad máxima media en intervalos de 10 minutos(hora)
DESCASC
Precipitaciones diarias en mm
DESCASC
Precipitaciones de 00:00 a 06:00 en mm
DESCASC
Precipitaciones de 06:00 a 12:00 en mm
DESCASC
Precipitaciones de 12:00 a 18:00 en mm
DESCASC
Precipitaciones de 18:00 a 24:00 en mm
DESCASC
22-10-2017 16.7 (17:10) 4.5 (06:20) 10.6 7.5 (05:50) 4.72 (11:10) 0 0 0 0 0
21-10-2017 15 (00:10) 7 (23:59) 11 8.61 (09:40) 5.83 (09:30) 0.6 0.2 0.4 0 0
20-10-2017 18.2 (15:30) 10.8 (06:20) 14.5 7.78 (13:20) 4.72 (12:50) 0 0 0 0 0
19-10-2017 13.9 (16:50) 4 (00:00) 8.9 7.22 (16:50) 4.72 (23:10) 0 0 0 0 0
18-10-2017 11.6 (01:40) 7.8 (00:00) 9.7 18.89 (04:20) 12.5 (04:40) 7.8 2.4 5.4 0 0
17-10-2017 19.1 (00:00) 10.1 (00:00) 14.6 18.33 (08:50) 10.83 (08:50) 12.8 0 12.6 0.2 0
16-10-2017 22.7 (15:10) 17.5 (00:00) 20.1 17.5 (18:50) 10.28 (05:00) 0 0 0 0 0
15-10-2017 27.2 (15:50) 20.3 (00:00) 23.8 16.11 (15:40) 10 (12:30) 0 0 0 0 0
14-10-2017 28.5 (15:10) 11.5 (00:00) 20 10.56 (15:20) 6.11 (16:40) 0 0 0 0 0
13-10-2017 25.3 (17:10) 11.8 (00:00) 18.5 8.89 (13:40) 5.83 (13:50) 0 0 0 0 0
12-10-2017 26.6 (15:30) 11.3 (00:00) 19 9.72 (17:00) 5.56 (12:50) 0 0 0 0 0
11-10-2017 24.9 (17:10) 12 (00:00) 18.4 10.28 (17:30) 5.56 (02:00) 0 0 0 0 0
10-10-2017 26.2 (17:10) 11.6 (00:00) 18.9 7.5 (15:10) 6.11 (03:00) 0 0 0 0 0
09-10-2017 25.1 (17:00) 11 (00:00) 18.1 7.22 (03:30) 6.39 (03:40) 0 0 0 0 0
08-10-2017 27 (16:30) 11.3 (00:00) 19.2 6.67 (12:40) 5.28 (08:20) 0 0 0 0 0
07-10-2017 25.3 (17:10) 9.6 (00:00) 17.4 9.72 (01:20) 6.39 (01:30) 0 0 0 0 0
06-10-2017 25.8 (16:00) 12 (00:00) 18.9 8.61 (15:10) 5.83 (15:10) 0 0 0 0 0
05-10-2017 29.1 (16:50) 14.7 (00:00) 21.9 8.06 (17:20) 5 (22:00) 0 0 0 0 0
04-10-2017 28.8 (15:20) 13.1 (00:00) 20.9 8.33 (17:50) 5.28 (03:00) 0 0 0 0 0
03-10-2017 28.5 (16:50) 14.8 (00:00) 21.7 7.22 (17:10) 4.72 (17:10) 0 0 0 0 0
02-10-2017 26.9 (16:40) 15.7 (00:00) 21.3 7.78 (12:10) 5.28 (12:10) 0 0 0 0 0
01-10-2017 24.7 (17:50) 10.7 (00:00) 17.7 9.17 (17:00) 5 (18:20) 0 0 0 0 0
30-09-2017 23.2 (16:50) 10.8 (00:00) 17 7.22 (16:20) 4.44 (18:50) 0 0 0 0 0
29-09-2017 25.9 (15:50) 12.2 (00:00) 19 9.17 (17:20) 5.83 (16:40) 0 0 0 0 0
28-09-2017 25.6 (16:40) 10.3 (00:00) 18 8.06 (17:10) 5 (12:30) 0 0 0 0 0
27-09-2017 24.7 (16:50) 10.8 (00:00) 17.8 8.06 (18:30) 5.28 (03:40) 0 0 0 0 0
26-09-2017 24.3 (17:40) 6 (00:00) 15.1 8.06 (11:40) 5 (22:10) 0 0 0 0 0
25-09-2017 21.1 (17:20) 9.8 (00:00) 15.5 10.56 (17:00) 4.17 (16:20) 0 0 0 0 0
24-09-2017 25.7 (15:50) 10.3 (00:00) 18 12.78 (15:10) 7.22 (13:10) 0 0 0 0 0
23-09-2017 25 (16:10) 11.9 (00:00) 18.4 9.44 (14:00) 5.28 (13:50) 0 0 0 0 0

Gráficas

Temp. máximas Temp. mínimas Temp. medias Precipitaciones Rachas de viento máximas Velocidades máximas media en intervalos de 10 minutos

Datos horarios

Fecha y hora oficial Temperatura (ºC) Velocidad del viento (km/h) Dirección del viento Racha (km/h) Dirección de racha Precipitación (mm) Presión (hPa) Tendencia (hPa) Humedad (%)
2017-10-22 23:00:00 7.7 8 Este 12 Este 0 -- -- 70
2017-10-22 22:00:00 6.8 7 Este 12 Este 0 -- -- 76
2017-10-22 21:00:00 8.2 4 Este 9 Este 0 -- -- 71
2017-10-22 20:00:00 11.1 6 Este 11 Nordeste 0 -- -- 59
2017-10-22 19:00:00 15.1 9 Nordeste 15 Norte 0 -- -- 46
2017-10-22 18:00:00 16.2 10 Nordeste 17 Norte 0 -- -- 43
2017-10-22 17:00:00 16.6 10 Nordeste 20 Nordeste 0 -- -- 44
2017-10-22 16:00:00 16.5 12 Nordeste 23 Nordeste 0 -- -- 45
2017-10-22 15:00:00 15.8 10 Nordeste 22 Nordeste 0 -- -- 44
2017-10-22 14:00:00 14.8 12 Nordeste 22 Nordeste 0 -- -- 49
2017-10-22 13:00:00 13.7 17 Nordeste 23 Nordeste 0 -- -- 55
2017-10-22 12:00:00 12.2 15 Nordeste 25 Nordeste 0 -- -- 56
2017-10-22 11:00:00 10.2 17 Nordeste 23 Nordeste 0 -- -- 66
2017-10-22 10:00:00 7.5 12 Nordeste 17 Este 0 -- -- 78
2017-10-22 09:00:00 4.7 12 Este 20 Este 0 -- -- 83
2017-10-22 08:00:00 6.3 16 Este 22 Este 0 -- -- 78
2017-10-22 07:00:00 6 16 Este 24 Este 0 -- -- 77
2017-10-22 06:00:00 5.1 12 Este 27 Este 0 -- -- 79
2017-10-22 05:00:00 5.9 15 Este 22 Este 0 -- -- 78
2017-10-22 04:00:00 6.1 14 Este 23 Este 0 -- -- 79
2017-10-22 03:00:00 6.5 14 Este 23 Este 0 -- -- 83
2017-10-22 02:00:00 6.9 13 Este 17 Este 0 -- -- 83
2017-10-22 01:00:00 6.6 12 Este 14 Este 0 -- -- 82
2017-10-22 00:00:00 7 9 Este 13 Este 0 -- -- 79
2017-10-21 23:00:00 7.5 9 Este 13 Nordeste 0 -- -- 79
2017-10-21 22:00:00 7.9 8 Este 11 Este 0 -- -- 78
2017-10-21 21:00:00 8.6 5 Nordeste 10 Norte 0 -- -- 75
2017-10-21 20:00:00 10.3 3 Norte 19 Noroeste 0 -- -- 70
2017-10-21 19:00:00 12.8 17 Norte 23 Norte 0 -- -- 61
2017-10-21 18:00:00 13.8 16 Noroeste 24 Noroeste 0 -- -- 55
2017-10-21 17:00:00 14 10 Noroeste 22 Oeste 0 -- -- 53
2017-10-21 16:00:00 14.1 10 Noroeste 21 Noroeste 0 -- -- 54
2017-10-21 15:00:00 13.4 12 Oeste 21 Oeste 0 -- -- 64
2017-10-21 14:00:00 12.1 9 Oeste 18 Noroeste 0 -- -- 81
2017-10-21 13:00:00 10.8 9 Oeste 15 Oeste 0 -- -- 94
2017-10-21 12:00:00 10.5 5 Oeste 14 Oeste 0 -- -- 97
2017-10-21 11:00:00 10.3 5 Sudoeste 15 Oeste 0 -- -- 97
2017-10-21 10:00:00 10 9 Oeste 31 Oeste 0.4 -- -- 98
2017-10-21 09:00:00 12.2 15 Oeste 22 Oeste 0 -- -- 95
2017-10-21 08:00:00 13.1 17 Sudoeste 25 Sudoeste 0 -- -- 91
2017-10-21 07:00:00 12.7 11 Sudoeste 16 Sudoeste 0 -- -- 89
2017-10-21 06:00:00 12.4 7 Sudoeste 18 Sudoeste 0 -- -- 92
2017-10-21 05:00:00 13.4 13 Sudoeste 24 Sudoeste 0 -- -- 94
2017-10-21 04:00:00 13.7 15 Sudoeste 29 Sudoeste 0 -- -- 93
2017-10-21 03:00:00 13.6 10 Sudoeste 19 Sudoeste 0 -- -- 96
2017-10-21 02:00:00 14.1 12 Sudoeste 22 Sudoeste 0 -- -- 95
2017-10-21 01:00:00 14.6 16 Oeste 24 Sudoeste 0.2 -- -- 95
2017-10-21 00:00:00 14.9 14 Sudoeste 24 Sudoeste 0 -- -- 94
2017-10-20 23:00:00 15.1 14 Sudoeste 24 Oeste 0 -- -- 93
2017-10-20 22:00:00 15.2 14 Sudoeste 21 Sudoeste 0 -- -- 92
2017-10-20 21:00:00 15.6 13 Sudoeste 20 Sudoeste 0 -- -- 90
2017-10-20 20:00:00 15.3 11 Sudoeste 20 Sudoeste 0 -- -- 91
2017-10-20 19:00:00 16.4 10 Sudoeste 22 Sudoeste 0 -- -- 83
2017-10-20 18:00:00 17.2 13 Oeste 21 Oeste 0 -- -- 78
2017-10-20 17:00:00 17.3 10 Sudoeste 18 Oeste 0 -- -- 77
2017-10-20 16:00:00 17.6 10 Sudoeste 16 Sudoeste 0 -- -- 75
2017-10-20 15:00:00 17 7 Sudoeste 21 Oeste 0 -- -- 77
2017-10-20 14:00:00 16.4 14 Sudoeste 28 Oeste 0 -- -- 79
2017-10-20 13:00:00 16.2 16 Sudoeste 25 Sudoeste 0 -- -- 81
2017-10-20 12:00:00 15.1 15 Sudoeste 25 Sudoeste 0 -- -- 85
2017-10-20 11:00:00 14.3 15 Sudoeste 26 Sudoeste 0 -- -- 86
2017-10-20 10:00:00 13.4 15 Sudoeste 25 Sudoeste 0 -- -- 84
2017-10-20 09:00:00 12 13 Sudoeste 23 Sudoeste 0 -- -- 88
2017-10-20 08:00:00 12 14 Sudoeste 21 Sudoeste 0 -- -- 89
2017-10-20 07:00:00 11.4 10 Sudoeste 18 Sudoeste 0 -- -- 93
2017-10-20 06:00:00 10.9 12 Sudoeste 19 Sudoeste 0 -- -- 92
2017-10-20 05:00:00 11.8 13 Sudoeste 23 Sudoeste 0 -- -- 93
2017-10-20 04:00:00 12.1 12 Sudoeste 23 Sudoeste 0 -- -- 94
2017-10-20 03:00:00 12.7 13 Sudoeste 22 Sudoeste 0 -- -- 90
2017-10-20 02:00:00 13 13 Sudoeste 23 Sudoeste 0 -- -- 88
2017-10-20 01:00:00 12.6 12 Sudoeste 19 Sudoeste 0 -- -- 86
2017-10-20 00:00:00 12.6 10 Sudoeste 22 Sudoeste 0 -- -- 85
2017-10-19 23:00:00 11.9 16 Sudoeste 23 Sudoeste 0 -- -- 83
2017-10-19 22:00:00 11.5 12 Sudoeste 17 Sudoeste 0 -- -- 83
2017-10-19 21:00:00 11.3 11 Sudoeste 21 Sudoeste 0 -- -- 82
2017-10-19 20:00:00 11.7 16 Sudoeste 23 Sudoeste 0 -- -- 82
2017-10-19 19:00:00 11.7 11 Sudoeste 24 Sudoeste 0 -- -- 81
2017-10-19 18:00:00 12.6 13 Oeste 23 Oeste 0 -- -- 69
2017-10-19 17:00:00 13.4 16 Oeste 26 Sudoeste 0 -- -- 63
2017-10-19 16:00:00 12.7 13 Oeste 18 Oeste 0 -- -- 62
2017-10-19 15:00:00 12 12 Oeste 22 Oeste 0 -- -- 62
2017-10-19 14:00:00 12.6 10 Noroeste 19 Oeste 0 -- -- 58
2017-10-19 13:00:00 12 10 Noroeste 16 Noroeste 0 -- -- 61
2017-10-19 12:00:00 10.7 4 Oeste 13 Oeste 0 -- -- 68
2017-10-19 11:00:00 10.3 6 Oeste 13 Sur 0 -- -- 70
2017-10-19 10:00:00 6.5 12 Sur 17 Sur 0 -- -- 92
2017-10-19 09:00:00 5.1 12 Sur 16 Sur 0 -- -- 95
2017-10-19 08:00:00 4.5 9 Sur 15 Sur 0 -- -- 95
2017-10-19 07:00:00 4.4 12 Sur 18 Sur 0 -- -- 93
2017-10-19 06:00:00 4 15 Sur 18 Sur 0 -- -- 93
2017-10-19 05:00:00 4.1 15 Sur 19 Sur 0 -- -- 93
2017-10-19 04:00:00 4.7 12 Sur 16 Sur 0 -- -- 94
2017-10-19 03:00:00 5 13 Sur 18 Sur 0 -- -- 94
2017-10-19 02:00:00 5.5 12 Sur 17 Sur 0 -- -- 94
2017-10-19 01:00:00 6.3 11 Sur 15 Sur 0 -- -- 91
2017-10-19 00:00:00 8.7 3 Sur 10 Sur 0 -- -- 86
2017-10-18 23:00:00 8.2 8 Sur 10 Sur 0 -- -- 88
2017-10-18 22:00:00 8.3 6 Sur 9 Sur 0 -- -- 86
2017-10-18 21:00:00 8.2 3 Sudoeste 9 Sur 0 -- -- 87
2017-10-18 20:00:00 9.1 6 Sudoeste 10 Sudoeste 0 -- -- 83
2017-10-18 19:00:00 10 6 Sudoeste 20 Sudoeste 0 -- -- 83
2017-10-18 18:00:00 11.6 14 Oeste 23 Oeste 0 -- -- 64
2017-10-18 17:00:00 11 15 Oeste 36 Oeste 0 -- -- 68
2017-10-18 16:00:00 11.4 21 Oeste 34 Oeste 0 -- -- 64
2017-10-18 15:00:00 11.6 19 Oeste 36 Oeste 0 -- -- 71
2017-10-18 14:00:00 11.2 21 Oeste 32 Oeste 0 -- -- 75
2017-10-18 13:00:00 8.9 16 Sudoeste 27 Oeste 0 -- -- 88
2017-10-18 12:00:00 8.5 10 Sudoeste 28 Sudoeste 2.8 -- -- 89
2017-10-18 11:00:00 9 13 Sudoeste 24 Sudoeste 0 -- -- 90
2017-10-18 10:00:00 8.6 10 Sudoeste 22 Sudoeste 0 -- -- 93
2017-10-18 09:00:00 7.8 12 Sudoeste 21 Sudoeste 0 -- -- 90
2017-10-18 08:00:00 8.4 13 Sur 26 Sur 0.8 -- -- 88
2017-10-18 07:00:00 8.2 13 Sudoeste 37 Sur 1.8 -- -- 92
2017-10-18 06:00:00 8.6 21 Sur 52 Sudoeste 1.2 -- -- 91
2017-10-18 05:00:00 9.2 37 Sur 68 Sur 1.2 -- -- 85
2017-10-18 04:00:00 10.4 26 Sur 56 Sur 0 -- -- 72
2017-10-18 03:00:00 11 21 Sur 34 Sur 0 -- -- 70
2017-10-18 02:00:00 11.3 15 Sudoeste 41 Sur 0 -- -- 67
2017-10-18 01:00:00 11.4 19 Sur 39 Sur 0 -- -- 69
2017-10-18 00:00:00 11.2 14 Sur 32 Sudoeste 0 -- -- 68
2017-10-17 23:00:00 10.1 7 Sudoeste 19 Sudoeste 0 -- -- 71
2017-10-17 22:00:00 10.9 11 Sudoeste 24 Sur 0 -- -- 70
2017-10-17 21:00:00 11.3 10 Sudoeste 24 Sur 0 -- -- 69
2017-10-17 20:00:00 12.3 10 Sur 33 Sur 0 -- -- 65
2017-10-17 19:00:00 13.7 17 Sur 32 Sur 0 -- -- 69
2017-10-17 18:00:00 14.8 19 Sur 38 Sudoeste 0 -- -- 67
2017-10-17 17:00:00 14.8 17 Sur 36 Sudoeste 0 -- -- 69
2017-10-17 16:00:00 13.7 18 Sur 46 Sudoeste 0 -- -- 76
2017-10-17 15:00:00 13.2 17 Sudoeste 39 Sudoeste 0 -- -- 86
2017-10-17 14:00:00 13.1 23 Sur 44 Sur 0 -- -- 90
2017-10-17 13:00:00 12.9 18 Sur 50 Sur 0.2 -- -- 93
2017-10-17 12:00:00 13.2 32 Sur 58 Sur 0.6 -- -- 90
2017-10-17 11:00:00 13 31 Sudeste 55 Sudeste 1.8 -- -- 87
2017-10-17 10:00:00 12.8 25 Sur 59 Sur 4.8 -- -- 89
2017-10-17 09:00:00 13.1 36 Sur 66 Sur 5.4 -- -- 85
2017-10-17 08:00:00 14.7 22 Sur 45 Sur 0 -- -- 83
2017-10-17 07:00:00 15.5 23 Sur 48 Sur 0 -- -- 77
2017-10-17 06:00:00 15.5 24 Sur 40 Sur 0 -- -- 73
2017-10-17 05:00:00 15.8 16 Sur 42 Sur 0 -- -- 69
2017-10-17 04:00:00 16.5 18 Sur 41 Sur 0 -- -- 63
2017-10-17 03:00:00 17.4 17 Sur 44 Sur 0 -- -- 57
2017-10-17 02:00:00 17.6 20 Sur 39 Sur 0 -- -- 54
2017-10-17 01:00:00 16.9 13 Sudeste 38 Sudoeste 0 -- -- 56
2017-10-17 00:00:00 19.1 19 Sur 35 Sur 0 -- -- 42
2017-10-16 23:00:00 19.9 21 Sur 52 Sudeste 0 -- -- 38
2017-10-16 22:00:00 20.6 22 Sudeste 48 Sudeste 0 -- -- 35
2017-10-16 21:00:00 20.5 23 Sudeste 45 Sudeste 0 -- -- 36
2017-10-16 20:00:00 20.3 30 Sudeste 56 Sudeste 0 -- -- 37
2017-10-16 19:00:00 20.5 30 Sudeste 63 Sudeste 0 -- -- 36
2017-10-16 18:00:00 20.7 24 Sur 45 Sur 0 -- -- 36
2017-10-16 17:00:00 21 8 Sudeste 35 Sur 0 -- -- 36
2017-10-16 16:00:00 21.4 17 Sur 37 Sur 0 -- -- 35
2017-10-16 15:00:00 22.4 10 Sur 39 Sur 0 -- -- 32
2017-10-16 14:00:00 21.7 27 Sur 50 Sur 0 -- -- 32
2017-10-16 13:00:00 21.6 23 Sur 53 Sudoeste 0 -- -- 33
2017-10-16 12:00:00 20.6 25 Sur 46 Sudoeste 0 -- -- 32
2017-10-16 11:00:00 20 23 Sur 51 Sur 0 -- -- 33
2017-10-16 10:00:00 19.8 15 Sur 41 Sur 0 -- -- 33
2017-10-16 09:00:00 17.8 20 Sur 39 Sur 0 -- -- 37
2017-10-16 08:00:00 17.7 26 Sur 44 Sudeste 0 -- -- 36
2017-10-16 07:00:00 18.1 21 Sudeste 42 Sur 0 -- -- 36
2017-10-16 06:00:00 18.3 26 Sur 53 Sur 0 -- -- 38
2017-10-16 05:00:00 19.5 37 Sur 57 Sur 0 -- -- 36
2017-10-16 04:00:00 20 29 Sur 49 Sur 0 -- -- 35
2017-10-16 03:00:00 20.3 24 Sur 39 Sudeste 0 -- -- 34
2017-10-16 02:00:00 20.4 14 Sur 35 Sur 0 -- -- 35
2017-10-16 01:00:00 21 17 Sur 34 Sudeste 0 -- -- 33
2017-10-16 00:00:00 21.7 16 Sur 52 Sudoeste 0 -- -- 33
2017-10-15 23:00:00 22.5 22 Sur 49 Sur 0 -- -- 33
2017-10-15 22:00:00 23 21 Sudeste 38 Este 0 -- -- 32
2017-10-15 21:00:00 23.1 22 Sudeste 45 Este 0 -- -- 34
2017-10-15 20:00:00 23.3 16 Sudeste 34 Sudeste 0 -- -- 33
2017-10-15 19:00:00 24.6 9 Sur 54 Sudoeste 0 -- -- 31
2017-10-15 18:00:00 25.5 20 Sur 45 Sur 0 -- -- 29
2017-10-15 17:00:00 26.4 22 Sur 45 Sur 0 -- -- 28
2017-10-15 16:00:00 27 28 Sur 58 Sur 0 -- -- 26
2017-10-15 15:00:00 25.8 19 Sudeste 40 Sudeste 0 -- -- 29
2017-10-15 14:00:00 26 22 Sur 46 Sudeste 0 -- -- 27
2017-10-15 13:00:00 25 30 Sudeste 50 Sudeste 0 -- -- 28
2017-10-15 12:00:00 25.5 34 Sudeste 50 Sudeste 0 -- -- 27
2017-10-15 11:00:00 23.6 28 Sudeste 42 Sudeste 0 -- -- 30
2017-10-15 10:00:00 22 18 Sudeste 33 Sudeste 0 -- -- 33
2017-10-15 09:00:00 20.3 15 Sudeste 30 Sur 0 -- -- 37
2017-10-15 08:00:00 21 18 Sur 30 Sur 0 -- -- 34
2017-10-15 07:00:00 21.4 19 Sur 28 Sur 0 -- -- 33
2017-10-15 06:00:00 21.6 19 Sur 27 Sur 0 -- -- 33
2017-10-15 05:00:00 22.3 18 Sur 24 Sur 0 -- -- 31
2017-10-15 04:00:00 22.5 13 Sur 21 Sur 0 -- -- 31
2017-10-15 03:00:00 22.3 12 Sur 20 Sur 0 -- -- 31
2017-10-15 02:00:00 22.1 10 Sur 19 Sur 0 -- -- 32
2017-10-15 01:00:00 22 14 Sur 22 Sur 0 -- -- 31
2017-10-15 00:00:00 22.1 16 Sur 28 Sudoeste 0 -- -- 29
2017-10-14 23:00:00 22 15 Sudoeste 25 Sudoeste 0 -- -- 28
2017-10-14 22:00:00 20.5 9 Sudoeste 18 Sudoeste 0 -- -- 33
2017-10-14 21:00:00 20.7 6 Oeste 14 Sudoeste 0 -- -- 33
2017-10-14 20:00:00 22.2 8 Sudoeste 21 Sudoeste 0 -- -- 30
2017-10-14 19:00:00 24.1 12 Sudoeste 24 Sur 0 -- -- 28
2017-10-14 18:00:00 25.6 15 Sudoeste 28 Sur 0 -- -- 25
2017-10-14 17:00:00 26 19 Sudoeste 34 Sur 0 -- -- 26
2017-10-14 16:00:00 26.6 16 Sudoeste 38 Sudoeste 0 -- -- 26
2017-10-14 15:00:00 27.8 15 Sudoeste 28 Sur 0 -- -- 25
2017-10-14 14:00:00 27.3 17 Sudoeste 29 Sudoeste 0 -- -- 25
2017-10-14 13:00:00 26 17 Sudoeste 27 Sudoeste 0 -- -- 26
2017-10-14 12:00:00 24.6 21 Sudoeste 31 Sudoeste 0 -- -- 27
2017-10-14 11:00:00 23.9 19 Sudoeste 28 Sur 0 -- -- 27
2017-10-14 10:00:00 20.2 15 Sudoeste 27 Sudoeste 0 -- -- 28
2017-10-14 09:00:00 15.1 4 Sudeste 9 Sur 0 -- -- 36
2017-10-14 08:00:00 12.2 6 Sudeste 10 Sur 0 -- -- 40
2017-10-14 07:00:00 11.9 9 Sur 15 Sur 0 -- -- 42
2017-10-14 06:00:00 13 8 Sudeste 17 Sur 0 -- -- 44
2017-10-14 05:00:00 11.5 10 Sur 14 Sur 0 -- -- 54
2017-10-14 04:00:00 12.7 10 Sur 21 Sur 0 -- -- 49
2017-10-14 03:00:00 13.8 17 Sur 21 Sur 0 -- -- 46
2017-10-14 02:00:00 13.5 15 Sur 19 Sur 0 -- -- 52
2017-10-14 01:00:00 14 16 Sur 19 Sur 0 -- -- 51
2017-10-14 00:00:00 14.4 14 Sur 18 Sur 0 -- -- 50
2017-10-13 23:00:00 15.4 14 Sur 21 Sur 0 -- -- 46
2017-10-13 22:00:00 15.6 14 Sur 19 Sur 0 -- -- 45
2017-10-13 21:00:00 15.8 13 Sur 16 Sur 0 -- -- 45
2017-10-13 20:00:00 17.4 11 Sur 16 Sur 0 -- -- 41
2017-10-13 19:00:00 23.5 10 Sur 21 Sudoeste 0 -- -- 29
2017-10-13 18:00:00 24.7 12 Sur 29 Sudoeste 0 -- -- 29
2017-10-13 17:00:00 25.1 12 Sur 26 Sudoeste 0 -- -- 28
2017-10-13 16:00:00 24.6 12 Sur 31 Sur 0 -- -- 31
2017-10-13 15:00:00 24.3 16 Sur 28 Sur 0 -- -- 31
2017-10-13 14:00:00 23.5 14 Sudoeste 32 Sudoeste 0 -- -- 33
2017-10-13 13:00:00 22.5 11 Sudeste 27 Sudeste 0 -- -- 36
2017-10-13 12:00:00 21.8 12 Sudeste 24 Sudeste 0 -- -- 42
2017-10-13 11:00:00 20.5 4 Norte 6 Norte 0 -- -- 47
2017-10-13 10:00:00 16.1 0 Calma 16 Sur 0 -- -- 61
2017-10-13 09:00:00 11.9 11 Sur 17 Sur 0 -- -- 74
2017-10-13 08:00:00 12.1 14 Sur 17 Sudeste 0 -- -- 74
2017-10-13 07:00:00 12.2 8 Sur 15 Sudeste 0 -- -- 73
2017-10-13 06:00:00 13.7 6 Sudeste 12 Sur 0 -- -- 68
2017-10-13 05:00:00 15.2 5 Sudeste 12 Sudoeste 0 -- -- 62
2017-10-13 04:00:00 14.4 6 Sur 11 Sur 0 -- -- 65
2017-10-13 03:00:00 13.9 6 Sur 14 Sur 0 -- -- 60
2017-10-13 02:00:00 13.8 9 Sur 17 Sur 0 -- -- 58
2017-10-13 01:00:00 15 12 Sur 19 Sur 0 -- -- 55
2017-10-13 00:00:00 15.7 15 Sur 19 Sur 0 -- -- 53
2017-10-12 23:00:00 15.4 14 Sur 18 Sur 0 -- -- 50
2017-10-12 22:00:00 15.1 10 Sur 19 Sur 0 -- -- 49
2017-10-12 21:00:00 16.4 12 Sur 17 Sur 0 -- -- 45
2017-10-12 20:00:00 20.2 6 Sudeste 18 Sudoeste 0 -- -- 36
2017-10-12 19:00:00 24.2 11 Sur 28 Sur 0 -- -- 29
2017-10-12 18:00:00 25.7 14 Sur 31 Sur 0 -- -- 27
2017-10-12 17:00:00 26.1 20 Sur 35 Sur 0 -- -- 26
2017-10-12 16:00:00 26.5 14 Sur 29 Sudeste 0 -- -- 25
2017-10-12 15:00:00 26.2 17 Sur 31 Sudoeste 0 -- -- 26
2017-10-12 14:00:00 25.9 15 Sur 28 Sudeste 0 -- -- 24
2017-10-12 13:00:00 25.5 17 Sur 31 Sudeste 0 -- -- 24
2017-10-12 12:00:00 24.9 19 Sudeste 25 Sudeste 0 -- -- 20
2017-10-12 11:00:00 22.5 5 Noroeste 12 Este 0 -- -- 25
2017-10-12 10:00:00 18.5 4 Norte 13 Sur 0 -- -- 32
2017-10-12 09:00:00 13.2 5 Sur 17 Sur 0 -- -- 36
2017-10-12 08:00:00 12.5 11 Sur 14 Sur 0 -- -- 42
2017-10-12 07:00:00 12.6 4 Sudeste 16 Sur 0 -- -- 42
2017-10-12 06:00:00 11.9 8 Sudeste 18 Sur 0 -- -- 42
2017-10-12 05:00:00 11.7 10 Sudeste 19 Sur 0 -- -- 44
2017-10-12 04:00:00 12.9 11 Sur 19 Sur 0 -- -- 40
2017-10-12 03:00:00 13.2 17 Sur 21 Sur 0 -- -- 39
2017-10-12 02:00:00 13.2 16 Sur 24 Sur 0 -- -- 36
2017-10-12 01:00:00 13.2 15 Sur 19 Sur 0 -- -- 34
2017-10-12 00:00:00 13.9 17 Sur 19 Sur 0 -- -- 31
2017-10-11 23:00:00 13.9 17 Sur 21 Sur 0 -- -- 31
2017-10-11 22:00:00 14.1 17 Sur 20 Sur 0 -- -- 31
2017-10-11 21:00:00 14.3 15 Sur 19 Sur 0 -- -- 31
2017-10-11 20:00:00 16.8 12 Sur 17 Sur 0 -- -- 30
2017-10-11 19:00:00 22.3 12 Noroeste 23 Oeste 0 -- -- 20
2017-10-11 18:00:00 24.2 10 Sudoeste 37 Oeste 0 -- -- 22
2017-10-11 17:00:00 24.6 13 Sudoeste 32 Sur 0 -- -- 23
2017-10-11 16:00:00 24.3 16 Oeste 27 Oeste 0 -- -- 24
2017-10-11 15:00:00 24.3 18 Sudoeste 29 Sudoeste 0 -- -- 25
2017-10-11 14:00:00 23.9 14 Sudoeste 27 Sudoeste 0 -- -- 25
2017-10-11 13:00:00 22.8 9 Oeste 19 Sudoeste 0 -- -- 27
2017-10-11 12:00:00 22.5 11 Sudoeste 19 Sudoeste 0 -- -- 28
2017-10-11 11:00:00 20.9 11 Sur 16 Sur 0 -- -- 29
2017-10-11 10:00:00 15.2 15 Sur 22 Sur 0 -- -- 46
2017-10-11 09:00:00 12.4 19 Sur 23 Sur 0 -- -- 49
2017-10-11 08:00:00 13 4 Sur 21 Sur 0 -- -- 44
2017-10-11 07:00:00 13 17 Sur 21 Sur 0 -- -- 44
2017-10-11 06:00:00 13 20 Sur 23 Sur 0 -- -- 45
2017-10-11 05:00:00 12.8 17 Sur 21 Sur 0 -- -- 45
2017-10-11 04:00:00 12.8 19 Sur 22 Sur 0 -- -- 44
2017-10-11 03:00:00 13 20 Sur 22 Sur 0 -- -- 44
2017-10-11 02:00:00 13.1 20 Sur 22 Sur 0 -- -- 43
2017-10-11 01:00:00 12.8 17 Sur 20 Sur 0 -- -- 42
2017-10-11 00:00:00 12.3 12 Sur 15 Sur 0 -- -- 42
2017-10-10 23:00:00 12.7 13 Sur 16 Sur 0 -- -- 40
2017-10-10 22:00:00 16 6 Norte 18 Sudeste 0 -- -- 29
2017-10-10 21:00:00 15.6 12 Sur 17 Sur 0 -- -- 31
2017-10-10 20:00:00 18.1 10 Sur 22 Sudoeste 0 -- -- 27
2017-10-10 19:00:00 23.4 14 Sudoeste 23 Sudoeste 0 -- -- 19
2017-10-10 18:00:00 25.4 16 Sur 25 Sur 0 -- -- 17
2017-10-10 17:00:00 26.1 12 Sudoeste 21 Sudoeste 0 -- -- 17
2017-10-10 16:00:00 25.4 9 Sudoeste 27 Noroeste 0 -- -- 16
2017-10-10 15:00:00 25 12 Oeste 25 Oeste 0 -- -- 19
2017-10-10 14:00:00 25 13 Oeste 23 Noroeste 0 -- -- 19
2017-10-10 13:00:00 24.4 7 Oeste 14 Sudoeste 0 -- -- 20
2017-10-10 12:00:00 23.7 3 Nordeste 6 Norte 0 -- -- 18
2017-10-10 11:00:00 20.9 2 Sur 13 Sur 0 -- -- 22
2017-10-10 10:00:00 15.7 12 Sur 18 Sur 0 -- -- 29
2017-10-10 09:00:00 12.5 15 Sur 21 Sur 0 -- -- 30
2017-10-10 08:00:00 11.7 17 Sur 23 Sur 0 -- -- 33
2017-10-10 07:00:00 12.2 19 Sur 23 Sur 0 -- -- 33
2017-10-10 06:00:00 12.2 20 Sur 25 Sur 0 -- -- 34
2017-10-10 05:00:00 12.5 19 Sur 26 Sur 0 -- -- 34
2017-10-10 04:00:00 12.5 21 Sur 25 Sur 0 -- -- 34
2017-10-10 03:00:00 12 22 Sur 26 Sur 0 -- -- 36
2017-10-10 02:00:00 12.8 20 Sur 24 Sur 0 -- -- 32
2017-10-10 01:00:00 13.1 20 Sur 23 Sur 0 -- -- 29
2017-10-10 00:00:00 13.1 18 Sur 21 Sur 0 -- -- 29
2017-10-09 23:00:00 13.5 17 Sur 20 Sur 0 -- -- 27
2017-10-09 22:00:00 14.5 16 Sur 23 Sur 0 -- -- 27
2017-10-09 21:00:00 14.7 20 Sur 22 Sur 0 -- -- 28
2017-10-09 20:00:00 18 10 Sur 17 Noroeste 0 -- -- 25
2017-10-09 19:00:00 23.7 12 Noroeste 21 Noroeste 0 -- -- 17
2017-10-09 18:00:00 24.8 9 Oeste 24 Oeste 0 -- -- 16
2017-10-09 17:00:00 25.1 11 Oeste 23 Oeste 0 -- -- 17
2017-10-09 16:00:00 24.8 11 Oeste 21 Oeste 0 -- -- 20
2017-10-09 15:00:00 24.1 10 Noroeste 20 Noroeste 0 -- -- 20
2017-10-09 14:00:00 23.4 10 Noroeste 21 Noroeste 0 -- -- 21
2017-10-09 13:00:00 23.2 10 Noroeste 18 Noroeste 0 -- -- 21
2017-10-09 12:00:00 22.4 3 Norte 8 Noroeste 0 -- -- 21
2017-10-09 11:00:00 20.5 4 Noroeste 9 Sur 0 -- -- 26
2017-10-09 10:00:00 16.5 8 Sur 17 Sudeste 0 -- -- 31
2017-10-09 09:00:00 11.9 19 Sur 22 Sur 0 -- -- 35
2017-10-09 08:00:00 11.9 14 Sur 18 Sur 0 -- -- 34
2017-10-09 07:00:00 12.2 16 Sur 19 Sur 0 -- -- 33
2017-10-09 06:00:00 12 16 Sur 21 Sur 0 -- -- 34
2017-10-09 05:00:00 12.5 21 Sur 24 Sur 0 -- -- 33
2017-10-09 04:00:00 12.7 22 Sur 26 Sur 0 -- -- 33
2017-10-09 03:00:00 12.6 20 Sur 25 Sur 0 -- -- 33
2017-10-09 02:00:00 13.4 20 Sur 24 Sur 0 -- -- 32
2017-10-09 01:00:00 13.9 17 Sur 19 Sur 0 -- -- 31
2017-10-09 00:00:00 12.1 7 Sudeste 15 Sur 0 -- -- 35
2017-10-08 23:00:00 13.3 14 Sur 16 Sur 0 -- -- 31
2017-10-08 22:00:00 14.4 15 Sur 19 Sur 0 -- -- 29
2017-10-08 21:00:00 15.8 8 Sur 16 Sur 0 -- -- 25
2017-10-08 20:00:00 18.8 11 Sur 13 Sur 0 -- -- 25
2017-10-08 19:00:00 25.3 8 Norte 19 Noroeste 0 -- -- 15
2017-10-08 18:00:00 26.2 9 Norte 17 Norte 0 -- -- 14
2017-10-08 17:00:00 26.7 9 Noroeste 19 Noroeste 0 -- -- 15
2017-10-08 16:00:00 26.7 6 Noroeste 20 Norte 0 -- -- 16
2017-10-08 15:00:00 25.5 6 Norte 19 Noroeste 0 -- -- 15
2017-10-08 14:00:00 24.8 11 Noroeste 24 Noroeste 0 -- -- 16
2017-10-08 13:00:00 25 11 Este 24 Este 0 -- -- 15
2017-10-08 12:00:00 23.5 12 Este 20 Este 0 -- -- 16
2017-10-08 11:00:00 22.2 9 Este 13 Este 0 -- -- 13
2017-10-08 10:00:00 15.2 7 Sur 21 Sur 0 -- -- 29
2017-10-08 09:00:00 12.3 16 Sur 22 Sur 0 -- -- 30
2017-10-08 08:00:00 11.5 19 Sur 21 Sur 0 -- -- 29
2017-10-08 07:00:00 12.5 16 Sur 20 Sur 0 -- -- 25
2017-10-08 06:00:00 11.9 15 Sur 18 Sur 0 -- -- 21
2017-10-08 05:00:00 11.4 13 Sur 17 Sur 0 -- -- 21
2017-10-08 04:00:00 12.3 11 Sur 16 Sur 0 -- -- 18
2017-10-08 03:00:00 11.5 9 Sur 15 Sur 0 -- -- 19
2017-10-08 02:00:00 11.6 10 Sudeste 14 Sudeste 0 -- -- 21
2017-10-08 01:00:00 12.3 14 Sur 17 Sur 0 -- -- 22
2017-10-08 00:00:00 12.4 12 Sudeste 15 Sudeste 0 -- -- 23
2017-10-07 23:00:00 13.1 10 Sudeste 17 Sudeste 0 -- -- 22
2017-10-07 22:00:00 12.3 10 Sudeste 15 Sudeste 0 -- -- 24
2017-10-07 21:00:00 14.7 8 Sudeste 18 Este 0 -- -- 24
2017-10-07 20:00:00 19.2 12 Este 22 Nordeste 0 -- -- 15
2017-10-07 19:00:00 23.4 15 Nordeste 30 Norte 0 -- -- 12
2017-10-07 18:00:00 25 15 Nordeste 27 Nordeste 0 -- -- 14
2017-10-07 17:00:00 25.2 15 Nordeste 31 Nordeste 0 -- -- 18
2017-10-07 16:00:00 24.8 14 Nordeste 31 Norte 0 -- -- 19
2017-10-07 15:00:00 24.3 15 Nordeste 32 Nordeste 0 -- -- 20
2017-10-07 14:00:00 23.4 19 Nordeste 31 Nordeste 0 -- -- 17
2017-10-07 13:00:00 22.1 18 Nordeste 27 Este 0 -- -- 21
2017-10-07 12:00:00 20.5 17 Este 28 Este 0 -- -- 18
2017-10-07 11:00:00 18 17 Nordeste 26 Este 0 -- -- 27
2017-10-07 10:00:00 14.3 14 Nordeste 20 Nordeste 0 -- -- 30
2017-10-07 09:00:00 9.6 10 Este 17 Nordeste 0 -- -- 55
2017-10-07 08:00:00 11.6 15 Este 20 Este 0 -- -- 43
2017-10-07 07:00:00 10.7 15 Este 19 Nordeste 0 -- -- 52
2017-10-07 06:00:00 12.9 13 Nordeste 18 Este 0 -- -- 50
2017-10-07 05:00:00 15.1 12 Este 29 Este 0 -- -- 39
2017-10-07 04:00:00 16.3 19 Este 26 Este 0 -- -- 33
2017-10-07 03:00:00 16.4 15 Este 26 Sudeste 0 -- -- 33
2017-10-07 02:00:00 17 16 Este 35 Este 0 -- -- 31
2017-10-07 01:00:00 16.8 18 Este 32 Este 0 -- -- 40
2017-10-07 00:00:00 16.2 20 Este 28 Este 0 -- -- 47
2017-10-06 23:00:00 16.7 17 Este 27 Este 0 -- -- 41
2017-10-06 22:00:00 17.3 15 Este 22 Este 0 -- -- 35
2017-10-06 21:00:00 18.4 15 Este 21 Este 0 -- -- 31
2017-10-06 20:00:00 20.6 11 Este 26 Nordeste 0 -- -- 29
2017-10-06 19:00:00 24 17 Nordeste 28 Nordeste 0 -- -- 23
2017-10-06 18:00:00 25.1 21 Nordeste 29 Nordeste 0 -- -- 21
2017-10-06 17:00:00 25.4 15 Nordeste 31 Nordeste 0 -- -- 22
2017-10-06 16:00:00 25.8 18 Nordeste 31 Nordeste 0 -- -- 23
2017-10-06 15:00:00 25.3 19 Nordeste 28 Nordeste 0 -- -- 24
2017-10-06 14:00:00 24.3 17 Nordeste 27 Nordeste 0 -- -- 27
2017-10-06 13:00:00 22.7 18 Nordeste 25 Nordeste 0 -- -- 34
2017-10-06 12:00:00 22.3 11 Nordeste 18 Nordeste 0 -- -- 36
2017-10-06 11:00:00 19.4 8 Nordeste 12 Nordeste 0 -- -- 49
2017-10-06 10:00:00 16.8 8 Nordeste 14 Sur 0 -- -- 50
2017-10-06 09:00:00 13.4 12 Sur 15 Sur 0 -- -- 51
2017-10-06 08:00:00 12.4 5 Sudeste 17 Sur 0 -- -- 53
2017-10-06 07:00:00 12.2 10 Sur 19 Sur 0 -- -- 56
2017-10-06 06:00:00 12.7 16 Sur 18 Sur 0 -- -- 55
2017-10-06 05:00:00 13.7 12 Sur 18 Sur 0 -- -- 51
2017-10-06 04:00:00 14.8 18 Sur 22 Sur 0 -- -- 49
2017-10-06 03:00:00 14.7 20 Sur 22 Sur 0 -- -- 50
2017-10-06 02:00:00 15.6 16 Sur 23 Sur 0 -- -- 47
2017-10-06 01:00:00 15.5 17 Sur 21 Sur 0 -- -- 49
2017-10-06 00:00:00 16.1 13 Sur 18 Sur 0 -- -- 49
2017-10-05 23:00:00 17.6 16 Sur 19 Sur 0 -- -- 46
2017-10-05 22:00:00 18 18 Sur 20 Sur 0 -- -- 47
2017-10-05 21:00:00 19.8 8 Sur 17 Sur 0 -- -- 42
2017-10-05 20:00:00 24 5 Sudeste 20 Norte 0 -- -- 36
2017-10-05 19:00:00 27.8 9 Noroeste 24 Noroeste 0 -- -- 28
2017-10-05 18:00:00 28.7 8 Norte 29 Noroeste 0 -- -- 28
2017-10-05 17:00:00 29 9 Norte 21 Norte 0 -- -- 29
2017-10-05 16:00:00 28.6 9 Noroeste 18 Nordeste 0 -- -- 30
2017-10-05 15:00:00 27.9 9 Norte 23 Oeste 0 -- -- 31
2017-10-05 14:00:00 27.6 8 Nordeste 22 Oeste 0 -- -- 32
2017-10-05 13:00:00 27.2 4 Sudoeste 16 Oeste 0 -- -- 32
2017-10-05 12:00:00 26.1 6 Sudoeste 11 Sudoeste 0 -- -- 35
2017-10-05 11:00:00 24.7 4 Oeste 11 Sudoeste 0 -- -- 39
2017-10-05 10:00:00 20.5 5 Sur 15 Sur 0 -- -- 54
2017-10-05 09:00:00 16.6 13 Sur 16 Sur 0 -- -- 61
2017-10-05 08:00:00 15.1 14 Sur 16 Sur 0 -- -- 63
2017-10-05 07:00:00 14.8 13 Sur 17 Sur 0 -- -- 61
2017-10-05 06:00:00 15.8 13 Sudeste 16 Sur 0 -- -- 59
2017-10-05 05:00:00 16.3 13 Sur 15 Sur 0 -- -- 55
2017-10-05 04:00:00 15.8 10 Sudeste 14 Sudeste 0 -- -- 57
2017-10-05 03:00:00 16.7 6 Este 9 Este 0 -- -- 55
2017-10-05 02:00:00 19 5 Este 8 Sur 0 -- -- 49
2017-10-05 01:00:00 19.6 3 Oeste 18 Sudoeste 0 -- -- 48
2017-10-05 00:00:00 20 10 Sudoeste 15 Sudoeste 0 -- -- 49
2017-10-04 23:00:00 19.4 9 Sudeste 15 Sur 0 -- -- 51
2017-10-04 22:00:00 18.5 9 Sur 13 Sur 0 -- -- 58
2017-10-04 21:00:00 19.5 10 Sur 15 Sur 0 -- -- 57
2017-10-04 20:00:00 23.4 9 Sur 21 Sur 0 -- -- 46
2017-10-04 19:00:00 26.3 13 Sudoeste 25 Sur 0 -- -- 38
2017-10-04 18:00:00 27.6 13 Sudoeste 30 Sur 0 -- -- 36
2017-10-04 17:00:00 28 16 Sudoeste 29 Sudoeste 0 -- -- 34
2017-10-04 16:00:00 28.6 16 Sur 28 Sudoeste 0 -- -- 32
2017-10-04 15:00:00 28.3 15 Sur 30 Sur 0 -- -- 31
2017-10-04 14:00:00 27.9 17 Sur 28 Sur 0 -- -- 31
2017-10-04 13:00:00 27.9 10 Sur 19 Sur 0 -- -- 32
2017-10-04 12:00:00 25.7 4 Norte 8 Oeste 0 -- -- 32
2017-10-04 11:00:00 23.3 7 Noroeste 14 Sur 0 -- -- 35
2017-10-04 10:00:00 19.7 11 Sur 15 Sur 0 -- -- 43
2017-10-04 09:00:00 15 5 Sudeste 14 Sur 0 -- -- 53
2017-10-04 08:00:00 13.4 5 Sudeste 18 Sur 0 -- -- 56
2017-10-04 07:00:00 16 17 Sur 21 Sur 0 -- -- 47
2017-10-04 06:00:00 13.9 8 Sur 16 Sudeste 0 -- -- 53
2017-10-04 05:00:00 13.6 13 Sur 15 Sur 0 -- -- 57
2017-10-04 04:00:00 14.6 11 Sur 21 Sur 0 -- -- 53
2017-10-04 03:00:00 15.2 19 Sur 23 Sur 0 -- -- 53
2017-10-04 02:00:00 15.6 13 Sur 22 Sur 0 -- -- 50
2017-10-04 01:00:00 16.2 19 Sur 22 Sur 0 -- -- 45
2017-10-04 00:00:00 16.5 15 Sur 21 Sur 0 -- -- 43
2017-10-03 23:00:00 17.9 17 Sur 21 Sur 0 -- -- 40
2017-10-03 22:00:00 18.2 15 Sur 21 Sur 0 -- -- 39
2017-10-03 21:00:00 18.9 16 Sur 19 Sur 0 -- -- 36
2017-10-03 20:00:00 24.7 4 Noroeste 20 Noroeste 0 -- -- 29
2017-10-03 19:00:00 27.4 14 Noroeste 23 Noroeste 0 -- -- 25
2017-10-03 18:00:00 28.1 14 Noroeste 26 Oeste 0 -- -- 31
2017-10-03 17:00:00 28.5 10 Noroeste 26 Noroeste 0 -- -- 33
2017-10-03 16:00:00 28.4 12 Sudoeste 25 Oeste 0 -- -- 29
2017-10-03 15:00:00 27.6 14 Oeste 25 Oeste 0 -- -- 31
2017-10-03 14:00:00 27.1 12 Noroeste 24 Noroeste 0 -- -- 40
2017-10-03 13:00:00 26.6 12 Noroeste 23 Noroeste 0 -- -- 41
2017-10-03 12:00:00 26 5 Noroeste 12 Noroeste 0 -- -- 43
2017-10-03 11:00:00 24.5 2 Norte 13 Sur 0 -- -- 48
2017-10-03 10:00:00 20 12 Sur 17 Sur 0 -- -- 62
2017-10-03 09:00:00 16.4 14 Sur 20 Sur 0 -- -- 73
2017-10-03 08:00:00 15.7 15 Sur 19 Sur 0 -- -- 76
2017-10-03 07:00:00 15.9 15 Sur 18 Sur 0 -- -- 75
2017-10-03 06:00:00 15.9 14 Sur 17 Sur 0 -- -- 74
2017-10-03 05:00:00 16.1 14 Sur 16 Sur 0 -- -- 73
2017-10-03 04:00:00 16.1 11 Sudeste 15 Sur 0 -- -- 72
2017-10-03 03:00:00 15.9 11 Sur 13 Sudeste 0 -- -- 73
2017-10-03 02:00:00 15.5 9 Sudeste 10 Sudeste 0 -- -- 75
2017-10-03 01:00:00 15.3 6 Sudeste 12 Este 0 -- -- 73
2017-10-03 00:00:00 15.7 9 Este 11 Este 0 -- -- 71
2017-10-02 23:00:00 19 8 Sudeste 14 Este 0 -- -- 59
2017-10-02 22:00:00 20.4 10 Este 15 Este 0 -- -- 55
2017-10-02 21:00:00 20.3 10 Este 12 Este 0 -- -- 55
2017-10-02 20:00:00 23.6 10 Nordeste 19 Este 0 -- -- 47
2017-10-02 19:00:00 26 12 Nordeste 22 Nordeste 0 -- -- 42
2017-10-02 18:00:00 26.6 16 Nordeste 26 Nordeste 0 -- -- 42
2017-10-02 17:00:00 26.7 11 Nordeste 21 Nordeste 0 -- -- 42
2017-10-02 16:00:00 26.5 9 Nordeste 24 Nordeste 0 -- -- 42
2017-10-02 15:00:00 25.8 10 Nordeste 23 Nordeste 0 -- -- 44
2017-10-02 14:00:00 24.8 12 Nordeste 25 Nordeste 0 -- -- 45
2017-10-02 13:00:00 23.7 11 Este 28 Nordeste 0 -- -- 45
2017-10-02 12:00:00 23 19 Nordeste 27 Nordeste 0 -- -- 45
2017-10-02 11:00:00 21.6 11 Este 21 Este 0 -- -- 48
2017-10-02 10:00:00 20.1 12 Este 18 Este 0 -- -- 50
2017-10-02 09:00:00 16.9 13 Este 16 Este 0 -- -- 59
2017-10-02 08:00:00 15.9 13 Este 15 Este 0 -- -- 61
2017-10-02 07:00:00 16.4 10 Este 14 Este 0 -- -- 59
2017-10-02 06:00:00 16.8 10 Este 16 Este 0 -- -- 58
2017-10-02 05:00:00 17.6 11 Este 18 Este 0 -- -- 55
2017-10-02 04:00:00 18.2 11 Este 18 Este 0 -- -- 54
2017-10-02 03:00:00 17.6 13 Este 18 Este 0 -- -- 55
2017-10-02 02:00:00 17.7 10 Este 18 Este 0 -- -- 54
2017-10-02 01:00:00 17.7 11 Este 17 Sudeste 0 -- -- 55
2017-10-02 00:00:00 18.2 12 Este 17 Este 0 -- -- 53
2017-10-01 23:00:00 18.6 12 Este 17 Este 0 -- -- 52
2017-10-01 22:00:00 18.7 12 Este 16 Este 0 -- -- 52
2017-10-01 21:00:00 19.6 9 Este 12 Nordeste 0 -- -- 49
2017-10-01 20:00:00 22 9 Nordeste 19 Nordeste 0 -- -- 43
2017-10-01 19:00:00 23.9 12 Nordeste 27 Este 0 -- -- 38
2017-10-01 18:00:00 24.5 16 Nordeste 27 Nordeste 0 -- -- 37
2017-10-01 17:00:00 24.5 15 Norte 33 Nordeste 0 -- -- 37
2017-10-01 16:00:00 24.4 15 Norte 25 Nordeste 0 -- -- 38
2017-10-01 15:00:00 23.5 13 Nordeste 27 Nordeste 0 -- -- 40
2017-10-01 14:00:00 22.6 15 Nordeste 27 Nordeste 0 -- -- 43
2017-10-01 13:00:00 21 14 Nordeste 26 Nordeste 0 -- -- 49
2017-10-01 12:00:00 19.7 11 Nordeste 22 Este 0 -- -- 55
2017-10-01 11:00:00 17.8 14 Nordeste 22 Nordeste 0 -- -- 60
2017-10-01 10:00:00 15.9 10 Nordeste 13 Nordeste 0 -- -- 62
2017-10-01 09:00:00 13 7 Este 10 Este 0 -- -- 75
2017-10-01 08:00:00 13.2 2 Nordeste 22 Este 0 -- -- 71
2017-10-01 07:00:00 15.9 13 Este 21 Este 0 -- -- 63
2017-10-01 06:00:00 11.5 9 Nordeste 16 Nordeste 0 -- -- 77
2017-10-01 05:00:00 13.3 15 Este 19 Este 0 -- -- 72
2017-10-01 04:00:00 12.8 11 Este 14 Este 0 -- -- 73
2017-10-01 03:00:00 12.5 8 Este 10 Este 0 -- -- 73
2017-10-01 02:00:00 10.9 7 Sur 13 Sur 0 -- -- 78
2017-10-01 01:00:00 11.5 10 Sur 15 Sur 0 -- -- 76
2017-10-01 00:00:00 12.2 8 Sur 17 Sur 0 -- -- 73
2017-09-30 23:00:00 13.2 8 Sur 16 Sur 0 -- -- 69
2017-09-30 22:00:00 14.3 7 Sur 13 Sur 0 -- -- 65
2017-09-30 21:00:00 15.4 5 Sur 17 Noroeste 0 -- -- 61
2017-09-30 20:00:00 18.7 11 Noroeste 21 Noroeste 0 -- -- 52
2017-09-30 19:00:00 21.1 15 Noroeste 24 Noroeste 0 -- -- 45
2017-09-30 18:00:00 22.8 13 Noroeste 26 Oeste 0 -- -- 33
2017-09-30 17:00:00 23.1 12 Noroeste 26 Oeste 0 -- -- 28
2017-09-30 16:00:00 22.3 12 Noroeste 22 Oeste 0 -- -- 42
2017-09-30 15:00:00 21.8 6 Norte 19 Noroeste 0 -- -- 45
2017-09-30 14:00:00 20.5 9 Noroeste 17 Noroeste 0 -- -- 59
2017-09-30 13:00:00 19.4 7 Noroeste 14 Noroeste 0 -- -- 66
2017-09-30 12:00:00 17.7 6 Norte 14 Noroeste 0 -- -- 70
2017-09-30 11:00:00 16.2 4 Sudeste 6 Sudeste 0 -- -- 83
2017-09-30 10:00:00 14 2 Norte 5 Norte 0 -- -- 92
2017-09-30 09:00:00 11.4 6 Sur 9 Sur 0 -- -- 88
2017-09-30 08:00:00 11.7 7 Sur 18 Sur 0 -- -- 85
2017-09-30 07:00:00 10.9 12 Sur 15 Sur 0 -- -- 88
2017-09-30 06:00:00 11.3 11 Sur 14 Sur 0 -- -- 87
2017-09-30 05:00:00 11.7 12 Sur 17 Sur 0 -- -- 85
2017-09-30 04:00:00 12.2 14 Sur 17 Sur 0 -- -- 80
2017-09-30 03:00:00 12.5 14 Sur 15 Sur 0 -- -- 75
2017-09-30 02:00:00 13.5 14 Sur 19 Sur 0 -- -- 69
2017-09-30 01:00:00 13.2 13 Sur 16 Sur 0 -- -- 68
2017-09-30 00:00:00 14.1 13 Sur 16 Sur 0 -- -- 64
2017-09-29 23:00:00 15.8 10 Sur 16 Sur 0 -- -- 59
2017-09-29 22:00:00 18.4 10 Sudoeste 18 Sudoeste 0 -- -- 50
2017-09-29 21:00:00 19.5 12 Sudoeste 15 Sudoeste 0 -- -- 50
2017-09-29 20:00:00 21.5 9 Sudoeste 19 Sudoeste 0 -- -- 44
2017-09-29 19:00:00 23.9 13 Sudoeste 27 Oeste 0 -- -- 39
2017-09-29 18:00:00 25.5 17 Sudoeste 33 Oeste 0 -- -- 36
2017-09-29 17:00:00 24.1 18 Sudoeste 30 Oeste 0 -- -- 38
2017-09-29 16:00:00 25.8 13 Sudoeste 28 Sur 0 -- -- 35
2017-09-29 15:00:00 25.7 19 Sur 30 Sur 0 -- -- 35
2017-09-29 14:00:00 25.1 12 Sudoeste 28 Sudoeste 0 -- -- 37
2017-09-29 13:00:00 24 10 Noroeste 17 Noroeste 0 -- -- 39
2017-09-29 12:00:00 22.6 5 Norte 8 Noroeste 0 -- -- 41
2017-09-29 11:00:00 19.7 3 Norte 9 Norte 0 -- -- 49
2017-09-29 10:00:00 16.9 5 Sur 8 Sur 0 -- -- 61
2017-09-29 09:00:00 15.6 2 Sudeste 12 Sudeste 0 -- -- 64
2017-09-29 08:00:00 14 6 Sudeste 14 Sur 0 -- -- 72
2017-09-29 07:00:00 12.3 13 Sur 14 Sudeste 0 -- -- 75
2017-09-29 06:00:00 13 9 Sur 13 Sur 0 -- -- 73
2017-09-29 05:00:00 13 7 Sudeste 13 Sur 0 -- -- 74
2017-09-29 04:00:00 13.3 12 Sur 19 Sur 0 -- -- 73
2017-09-29 03:00:00 13.8 14 Sur 19 Sur 0 -- -- 73
2017-09-29 02:00:00 14 15 Sur 18 Sur 0 -- -- 69
2017-09-29 01:00:00 14.2 13 Sur 17 Sur 0 -- -- 59
2017-09-29 00:00:00 15.4 7 Sudoeste 18 Sur 0 -- -- 52
2017-09-28 23:00:00 15.4 15 Sur 17 Sur 0 -- -- 53
2017-09-28 22:00:00 15.9 13 Sur 17 Sur 0 -- -- 51
2017-09-28 21:00:00 16.9 8 Sur 10 Sur 0 -- -- 48
2017-09-28 20:00:00 21.7 8 Sudoeste 21 Sudoeste 0 -- -- 34
2017-09-28 19:00:00 24.4 10 Sudoeste 26 Sudoeste 0 -- -- 30
2017-09-28 18:00:00 25 14 Sudoeste 29 Oeste 0 -- -- 28
2017-09-28 17:00:00 25.4 13 Sudoeste 25 Sudoeste 0 -- -- 24
2017-09-28 16:00:00 25.4 12 Sudoeste 23 Sur 0 -- -- 26
2017-09-28 15:00:00 24.5 11 Sur 26 Sur 0 -- -- 28
2017-09-28 14:00:00 24.2 13 Sur 21 Sur 0 -- -- 28
2017-09-28 13:00:00 23.1 13 Sudoeste 24 Sur 0 -- -- 30
2017-09-28 12:00:00 22.5 15 Sur 23 Sur 0 -- -- 31
2017-09-28 11:00:00 20.9 8 Noroeste 15 Noroeste 0 -- -- 39
2017-09-28 10:00:00 17.4 3 Sur 18 Sur 0 -- -- 48
2017-09-28 09:00:00 12.6 14 Sur 18 Sur 0 -- -- 59
2017-09-28 08:00:00 11.6 14 Sur 19 Sur 0 -- -- 60
2017-09-28 07:00:00 10.9 8 Sudeste 17 Sur 0 -- -- 60
2017-09-28 06:00:00 11 9 Sudeste 12 Sur 0 -- -- 56
2017-09-28 05:00:00 10.3 9 Sur 13 Sur 0 -- -- 56
2017-09-28 04:00:00 10.9 8 Sur 11 Sur 0 -- -- 55
2017-09-28 03:00:00 13.4 6 Nordeste 14 Sur 0 -- -- 53
2017-09-28 02:00:00 14.8 12 Sur 20 Sudeste 0 -- -- 45
2017-09-28 01:00:00 17.7 16 Sudeste 23 Sudeste 0 -- -- 39
2017-09-28 00:00:00 14.5 8 Sur 16 Sudeste 0 -- -- 51
2017-09-27 23:00:00 15.1 10 Sur 19 Sudeste 0 -- -- 52
2017-09-27 22:00:00 14.4 11 Sur 16 Sur 0 -- -- 55
2017-09-27 21:00:00 15.4 15 Sur 17 Sur 0 -- -- 51
2017-09-27 20:00:00 19.9 10 Sur 18 Sudoeste 0 -- -- 41
2017-09-27 19:00:00 23.2 10 Sur 29 Oeste 0 -- -- 32
2017-09-27 18:00:00 23.7 15 Sur 26 Sur 0 -- -- 30
2017-09-27 17:00:00 24.7 14 Sudoeste 24 Sudoeste 0 -- -- 27
2017-09-27 16:00:00 23.4 12 Sur 28 Sudoeste 0 -- -- 29
2017-09-27 15:00:00 23.1 15 Sur 26 Sur 0 -- -- 31
2017-09-27 14:00:00 23.7 13 Sur 25 Sur 0 -- -- 28
2017-09-27 13:00:00 23.3 15 Sur 26 Sur 0 -- -- 30
2017-09-27 12:00:00 22.3 19 Sur 28 Sur 0 -- -- 31
2017-09-27 11:00:00 21.4 4 Norte 14 Este 0 -- -- 33
2017-09-27 10:00:00 18.6 5 Sur 16 Sur 0 -- -- 43
2017-09-27 09:00:00 12.6 13 Sur 22 Sur 0 -- -- 56
2017-09-27 08:00:00 11.2 16 Sur 20 Sur 0 -- -- 61
2017-09-27 07:00:00 11.5 17 Sur 22 Sur 0 -- -- 59
2017-09-27 06:00:00 10.8 13 Sur 16 Sudeste 0 -- -- 59
2017-09-27 05:00:00 10.8 16 Sur 20 Sur 0 -- -- 57
2017-09-27 04:00:00 12 19 Sur 23 Sur 0 -- -- 53
2017-09-27 03:00:00 11.1 15 Sur 18 Sur 0 -- -- 56
2017-09-27 02:00:00 11.8 14 Sur 17 Sur 0 -- -- 55
2017-09-27 01:00:00 11.4 12 Sudeste 17 Sur 0 -- -- 57
2017-09-27 00:00:00 12.9 13 Sur 18 Sur 0 -- -- 53
2017-09-26 23:00:00 13.6 14 Sur 23 Sur 0 -- -- 51
2017-09-26 22:00:00 13.8 14 Sur 19 Sur 0 -- -- 48
2017-09-26 21:00:00 14.9 18 Sur 22 Sur 0 -- -- 45
2017-09-26 20:00:00 21.3 7 Noroeste 15 Noroeste 0 -- -- 31
2017-09-26 19:00:00 23.6 8 Noroeste 21 Noroeste 0 -- -- 28
2017-09-26 18:00:00 24.1 9 Noroeste 23 Norte 0 -- -- 28
2017-09-26 17:00:00 24.2 8 Noroeste 24 Noroeste 0 -- -- 30
2017-09-26 16:00:00 23.7 10 Oeste 22 Noroeste 0 -- -- 30
2017-09-26 15:00:00 23.3 9 Oeste 24 Oeste 0 -- -- 33
2017-09-26 14:00:00 22.8 6 Nordeste 15 Nordeste 0 -- -- 32
2017-09-26 13:00:00 21 10 Nordeste 18 Nordeste 0 -- -- 33
2017-09-26 12:00:00 19.9 7 Este 29 Este 0 -- -- 38
2017-09-26 11:00:00 18.4 12 Este 18 Este 0 -- -- 42
2017-09-26 10:00:00 14 3 Este 10 Sudeste 0 -- -- 64
2017-09-26 09:00:00 8.1 3 Sudeste 10 Sur 0 -- -- 80
2017-09-26 08:00:00 6.1 9 Sur 11 Sur 0 -- -- 85
2017-09-26 07:00:00 6.7 8 Sur 11 Sur 0 -- -- 81
2017-09-26 06:00:00 7.9 7 Sur 14 Sur 0 -- -- 79
2017-09-26 05:00:00 8.6 13 Sur 18 Sur 0 -- -- 76
2017-09-26 04:00:00 8.5 13 Sur 18 Sur 0 -- -- 74
2017-09-26 03:00:00 9.2 15 Sur 19 Sur 0 -- -- 71
2017-09-26 02:00:00 9.6 13 Sur 18 Sur 0 -- -- 67
2017-09-26 01:00:00 10.1 14 Sur 16 Sur 0 -- -- 62
2017-09-26 00:00:00 9.8 7 Sudeste 15 Sudeste 0 -- -- 61
2017-09-25 23:00:00 11.3 11 Sur 14 Sur 0 -- -- 56
2017-09-25 22:00:00 11.6 9 Sur 12 Sur 0 -- -- 54
2017-09-25 21:00:00 13.9 7 Sur 14 Noroeste 0 -- -- 48
2017-09-25 20:00:00 19.1 8 Norte 18 Norte 0 -- -- 36
2017-09-25 19:00:00 20.8 10 Norte 18 Norte 0 -- -- 31
2017-09-25 18:00:00 20.9 11 Norte 23 Norte 0 -- -- 32
2017-09-25 17:00:00 20.6 13 Norte 38 Norte 0 -- -- 35
2017-09-25 16:00:00 20.6 11 Norte 22 Norte 0 -- -- 39
2017-09-25 15:00:00 19.2 10 Norte 24 Oeste 0 -- -- 46
2017-09-25 14:00:00 18.1 13 Noroeste 26 Noroeste 0 -- -- 52
2017-09-25 13:00:00 16.7 9 Noroeste 20 Noroeste 0 -- -- 62
2017-09-25 12:00:00 14.8 9 Noroeste 15 Noroeste 0 -- -- 70
2017-09-25 11:00:00 13.8 8 Norte 14 Norte 0 -- -- 75
2017-09-25 10:00:00 12.1 4 Noroeste 11 Sur 0 -- -- 84
2017-09-25 09:00:00 10.7 6 Sudeste 9 Nordeste 0 -- -- 93
2017-09-25 08:00:00 10.4 3 Sur 7 Sur 0 -- -- 94
2017-09-25 07:00:00 11.2 0 Calma 7 Oeste 0 -- -- 95
2017-09-25 06:00:00 11.6 4 Oeste 9 Noroeste 0 -- -- 93
2017-09-25 05:00:00 13.2 6 Noroeste 10 Noroeste 0 -- -- 90
2017-09-25 04:00:00 14.2 8 Oeste 13 Oeste 0 -- -- 89
2017-09-25 03:00:00 14.4 9 Sudoeste 16 Sudoeste 0 -- -- 86
2017-09-25 02:00:00 14.4 10 Oeste 17 Sudoeste 0 -- -- 79
2017-09-25 01:00:00 13.6 9 Oeste 14 Oeste 0 -- -- 60
2017-09-25 00:00:00 14.6 11 Sudoeste 17 Sudoeste 0 -- -- 51
2017-09-24 23:00:00 15.4 11 Sudoeste 15 Sudoeste 0 -- -- 37
2017-09-24 22:00:00 17.1 12 Sudoeste 25 Oeste 0 -- -- 31
2017-09-24 21:00:00 18.6 15 Sur 19 Sudoeste 0 -- -- 27
2017-09-24 20:00:00 21.8 14 Sudoeste 26 Oeste 0 -- -- 26
2017-09-24 19:00:00 23.4 20 Sudoeste 32 Sudoeste 0 -- -- 24
2017-09-24 18:00:00 24.1 20 Sudoeste 35 Sudoeste 0 -- -- 26
2017-09-24 17:00:00 25.3 22 Sudoeste 38 Oeste 0 -- -- 27
2017-09-24 16:00:00 25.4 22 Sudoeste 46 Oeste 0 -- -- 25
2017-09-24 15:00:00 24.8 22 Sudoeste 37 Oeste 0 -- -- 31
2017-09-24 14:00:00 24.7 22 Sudoeste 40 Sudoeste 0 -- -- 33
2017-09-24 13:00:00 23.5 26 Sudoeste 36 Sudoeste 0 -- -- 36
2017-09-24 12:00:00 22.4 19 Sudoeste 33 Sudoeste 0 -- -- 39
2017-09-24 11:00:00 21.6 14 Sudoeste 24 Sudoeste 0 -- -- 41
2017-09-24 10:00:00 19.8 11 Sudoeste 18 Sur 0 -- -- 45
2017-09-24 09:00:00 14.4 4 Sur 11 Sur 0 -- -- 60
2017-09-24 08:00:00 10.3 9 Sur 12 Sur 0 -- -- 73
2017-09-24 07:00:00 12.3 6 Sur 12 Sur 0 -- -- 65
2017-09-24 06:00:00 12 6 Sur 17 Sur 0 -- -- 66
2017-09-24 05:00:00 11.6 11 Sudeste 16 Sur 0 -- -- 68
2017-09-24 04:00:00 11.3 8 Sudeste 15 Sudeste 0 -- -- 69
2017-09-24 03:00:00 11.7 7 Sudeste 12 Sudeste 0 -- -- 67
2017-09-24 02:00:00 12.4 6 Sudeste 17 Sur 0 -- -- 65
2017-09-24 01:00:00 12.8 12 Sur 20 Sur 0 -- -- 64
2017-09-24 00:00:00 13.8 14 Sur 19 Sur 0 -- -- 61
2017-09-23 23:00:00 15.1 9 Sudoeste 18 Sur 0 -- -- 57
2017-09-23 22:00:00 16.1 15 Sur 17 Sur 0 -- -- 55
2017-09-23 21:00:00 17.4 13 Sur 15 Sur 0 -- -- 53
2017-09-23 20:00:00 19.8 7 Sudoeste 21 Sudoeste 0 -- -- 46
2017-09-23 19:00:00 22.1 14 Sudoeste 34 Oeste 0 -- -- 39
2017-09-23 18:00:00 24.3 10 Sur 27 Sudoeste 0 -- -- 35
2017-09-23 17:00:00 25 14 Sur 28 Sur 0 -- -- 34
2017-09-23 16:00:00 24.9 13 Sudoeste 31 Sudoeste 0 -- -- 35
2017-09-23 15:00:00 24.4 18 Sudoeste 31 Sudeste 0 -- -- 34
2017-09-23 14:00:00 24 19 Sur 34 Sur 0 -- -- 36
2017-09-23 13:00:00 23.3 12 Sudoeste 32 Sudoeste 0 -- -- 36
2017-09-23 12:00:00 22.6 12 Sudoeste 24 Sur 0 -- -- 37
2017-09-23 11:00:00 21.5 13 Sur 22 Sur 0 -- -- 38
2017-09-23 10:00:00 18.4 10 Sur 18 Sur 0 -- -- 46
2017-09-23 09:00:00 13.8 14 Sur 17 Sur 0 -- -- 56
2017-09-23 08:00:00 13 14 Sur 19 Sudeste 0 -- -- 56
2017-09-23 07:00:00 13.6 11 Sur 17 Sur 0 -- -- 53
2017-09-23 06:00:00 11.9 10 Sur 17 Sur 0 -- -- 58
2017-09-23 05:00:00 12.7 13 Sur 23 Sur 0 -- -- 53
2017-09-23 04:00:00 12.7 14 Sudeste 22 Sur 0 -- -- 53
2017-09-23 03:00:00 13 15 Sur 22 Sur 0 -- -- 53
2017-09-23 02:00:00 13.3 16 Sur 22 Sur 0 -- -- 52
2017-09-23 01:00:00 13.1 16 Sur 19 Sur 0 -- -- 53
2017-09-23 00:00:00 15.4 3 Sudeste 14 Sudeste 0 -- -- 45